BAW406 EGLL-EBCI
Flight info
| Callsign | BAW406 |
|---|---|
| Flight time | N/A |
| Altitude | 35000 |
| Route | GOS |
| Aircraft | A320/M-SDE3FGHIRWY/LB1 |
Departure
| Time | N/A |
|---|---|
| Airport | London Heathrow Airport (EGLL) |
Arrival
| Time | 2026-05-06 16:20 |
|---|---|
| Airport | Brussels South Charleroi Airport (EBCI) |
| Time | Latitude | Longitude | Altitude | Speed | Heading |
|---|---|---|---|---|---|
| 2026-05-06 15:54 | 51.11783 | 2.01510 | 20536 ft | 423 kts | 112° |
| 2026-05-06 15:54 | 51.10712 | 2.05854 | 20002 ft | 420 kts | 112° |
| 2026-05-06 15:54 | 51.09639 | 2.10158 | 19478 ft | 416 kts | 112° |
| 2026-05-06 15:55 | 51.08570 | 2.14414 | 18929 ft | 414 kts | 112° |
| 2026-05-06 15:55 | 51.07510 | 2.18661 | 18360 ft | 412 kts | 112° |
| 2026-05-06 15:55 | 51.06457 | 2.22871 | 18001 ft | 408 kts | 112° |
| 2026-05-06 15:55 | 51.05399 | 2.27058 | 17727 ft | 408 kts | 112° |
| 2026-05-06 15:56 | 51.04336 | 2.31235 | 17445 ft | 408 kts | 112° |
| 2026-05-06 15:56 | 51.03269 | 2.35416 | 17177 ft | 408 kts | 112° |
| 2026-05-06 15:56 | 51.02206 | 2.39581 | 16915 ft | 405 kts | 112° |
| 2026-05-06 15:56 | 51.01154 | 2.43708 | 16651 ft | 401 kts | 112° |
| 2026-05-06 15:57 | 51.00121 | 2.47764 | 16392 ft | 400 kts | 112° |
| 2026-05-06 15:57 | 50.99064 | 2.51912 | 16126 ft | 400 kts | 112° |
| 2026-05-06 15:57 | 50.98019 | 2.56003 | 15864 ft | 399 kts | 112° |
| 2026-05-06 15:57 | 50.96993 | 2.60011 | 15620 ft | 396 kts | 112° |
| 2026-05-06 15:58 | 50.95959 | 2.64050 | 15361 ft | 396 kts | 112° |
| 2026-05-06 15:58 | 50.94917 | 2.68109 | 15110 ft | 397 kts | 112° |
| 2026-05-06 15:58 | 50.93874 | 2.72149 | 14862 ft | 395 kts | 112° |
| 2026-05-06 15:58 | 50.92836 | 2.76162 | 14620 ft | 393 kts | 112° |
| 2026-05-06 15:59 | 50.91800 | 2.80152 | 14373 ft | 391 kts | 112° |
| 2026-05-06 15:59 | 50.90762 | 2.84144 | 14124 ft | 392 kts | 112° |
| 2026-05-06 15:59 | 50.89727 | 2.88128 | 13890 ft | 390 kts | 112° |
| 2026-05-06 15:59 | 50.88698 | 2.92090 | 13636 ft | 387 kts | 112° |
| 2026-05-06 16:00 | 50.87674 | 2.96023 | 13362 ft | 386 kts | 112° |
| 2026-05-06 16:00 | 50.86663 | 2.99946 | 13036 ft | 383 kts | 111° |
| 2026-05-06 16:00 | 50.85934 | 3.03982 | 12423 ft | 380 kts | 103° |
| 2026-05-06 16:00 | 50.85346 | 3.08034 | 11895 ft | 376 kts | 102° |
| 2026-05-06 16:01 | 50.84766 | 3.12040 | 11374 ft | 372 kts | 102° |
| 2026-05-06 16:01 | 50.84180 | 3.16007 | 10819 ft | 369 kts | 102° |
| 2026-05-06 16:01 | 50.83591 | 3.19935 | 10326 ft | 365 kts | 102° |
| 2026-05-06 16:01 | 50.83006 | 3.23772 | 10141 ft | 351 kts | 102° |
| 2026-05-06 16:02 | 50.82443 | 3.27456 | 10029 ft | 338 kts | 102° |
| 2026-05-06 16:02 | 50.81899 | 3.30962 | 9912 ft | 327 kts | 102° |
| 2026-05-06 16:02 | 50.81371 | 3.34398 | 9790 ft | 316 kts | 102° |
| 2026-05-06 16:02 | 50.80867 | 3.37722 | 9652 ft | 306 kts | 102° |
| 2026-05-06 16:03 | 50.80373 | 3.40945 | 9503 ft | 297 kts | 102° |
| 2026-05-06 16:03 | 50.79884 | 3.44093 | 9244 ft | 293 kts | 102° |
| 2026-05-06 16:03 | 50.79398 | 3.47207 | 8943 ft | 291 kts | 102° |
| 2026-05-06 16:03 | 50.78921 | 3.50295 | 8655 ft | 288 kts | 102° |
| 2026-05-06 16:04 | 50.78446 | 3.53357 | 8335 ft | 286 kts | 102° |
| 2026-05-06 16:04 | 50.77962 | 3.56405 | 8014 ft | 285 kts | 102° |
| 2026-05-06 16:04 | 50.77478 | 3.59430 | 7897 ft | 283 kts | 102° |
| 2026-05-06 16:04 | 50.76995 | 3.62454 | 7903 ft | 284 kts | 103° |
| 2026-05-06 16:05 | 50.76516 | 3.65480 | 7903 ft | 284 kts | 103° |
| 2026-05-06 16:05 | 50.76032 | 3.68504 | 7904 ft | 285 kts | 102° |
| 2026-05-06 16:05 | 50.75536 | 3.71534 | 7904 ft | 284 kts | 103° |
| 2026-05-06 16:05 | 50.75050 | 3.74561 | 7905 ft | 284 kts | 103° |
| 2026-05-06 16:06 | 50.74566 | 3.77587 | 7901 ft | 285 kts | 102° |
| 2026-05-06 16:06 | 50.74072 | 3.80620 | 7900 ft | 285 kts | 102° |
| 2026-05-06 16:06 | 50.73780 | 3.83685 | 7901 ft | 282 kts | 83° |
| 2026-05-06 16:06 | 50.74138 | 3.86713 | 7901 ft | 280 kts | 74° |
| 2026-05-06 16:07 | 50.74642 | 3.89686 | 7901 ft | 280 kts | 72° |
| 2026-05-06 16:07 | 50.75150 | 3.92665 | 7905 ft | 280 kts | 74° |
| 2026-05-06 16:07 | 50.75255 | 3.95726 | 7893 ft | 284 kts | 99° |
| 2026-05-06 16:07 | 50.74723 | 3.98737 | 7896 ft | 285 kts | 107° |
| 2026-05-06 16:08 | 50.74080 | 4.01705 | 7895 ft | 286 kts | 107° |
| 2026-05-06 16:08 | 50.73420 | 4.04668 | 7782 ft | 285 kts | 108° |
| 2026-05-06 16:08 | 50.72761 | 4.07595 | 7303 ft | 281 kts | 107° |
| 2026-05-06 16:08 | 50.72109 | 4.10497 | 6773 ft | 279 kts | 108° |
| 2026-05-06 16:09 | 50.71465 | 4.13371 | 6236 ft | 277 kts | 107° |
| 2026-05-06 16:09 | 50.70815 | 4.16225 | 5696 ft | 275 kts | 108° |
| 2026-05-06 16:09 | 50.70163 | 4.19050 | 5180 ft | 273 kts | 107° |
| 2026-05-06 16:09 | 50.69511 | 4.21843 | 4655 ft | 270 kts | 108° |
| 2026-05-06 16:10 | 50.68851 | 4.24521 | 4381 ft | 257 kts | 108° |
| 2026-05-06 16:10 | 50.68229 | 4.27067 | 4221 ft | 241 kts | 108° |
| 2026-05-06 16:10 | 50.67640 | 4.29502 | 4025 ft | 236 kts | 108° |
| 2026-05-06 16:10 | 50.67056 | 4.31923 | 4002 ft | 237 kts | 108° |
| 2026-05-06 16:11 | 50.66467 | 4.34362 | 4007 ft | 237 kts | 107° |
| 2026-05-06 16:11 | 50.65880 | 4.36788 | 4007 ft | 237 kts | 108° |
| 2026-05-06 16:11 | 50.65297 | 4.39216 | 4009 ft | 237 kts | 108° |
| 2026-05-06 16:11 | 50.64714 | 4.41651 | 4005 ft | 237 kts | 108° |
| 2026-05-06 16:12 | 50.64128 | 4.44066 | 4003 ft | 236 kts | 108° |
| 2026-05-06 16:12 | 50.63538 | 4.46486 | 4002 ft | 236 kts | 108° |
| 2026-05-06 16:12 | 50.62955 | 4.48906 | 4008 ft | 237 kts | 108° |
| 2026-05-06 16:12 | 50.62371 | 4.51338 | 4011 ft | 237 kts | 108° |
| 2026-05-06 16:13 | 50.61786 | 4.53768 | 4004 ft | 237 kts | 108° |
| 2026-05-06 16:13 | 50.61210 | 4.56154 | 4004 ft | 236 kts | 108° |
| 2026-05-06 16:13 | 50.60620 | 4.58604 | 4004 ft | 236 kts | 106° |
| 2026-05-06 16:13 | 50.60377 | 4.61116 | 4007 ft | 232 kts | 86° |
| 2026-05-06 16:14 | 50.60441 | 4.63621 | 4005 ft | 232 kts | 83° |
| 2026-05-06 16:14 | 50.60546 | 4.66156 | 4009 ft | 233 kts | 83° |
| 2026-05-06 16:14 | 50.60651 | 4.68712 | 4007 ft | 235 kts | 86° |
| 2026-05-06 16:14 | 50.60302 | 4.71223 | 3951 ft | 239 kts | 116° |
| 2026-05-06 16:15 | 50.59186 | 4.73133 | 3663 ft | 240 kts | 146° |
| 2026-05-06 16:15 | 50.57727 | 4.74432 | 3340 ft | 241 kts | 152° |
| 2026-05-06 16:15 | 50.56159 | 4.75228 | 3130 ft | 235 kts | 180° |
| 2026-05-06 16:15 | 50.54690 | 4.74476 | 3022 ft | 215 kts | 224° |
| 2026-05-06 16:16 | 50.53914 | 4.72692 | 3004 ft | 187 kts | 248° |
| 2026-05-06 16:16 | 50.53384 | 4.70920 | 2993 ft | 172 kts | 250° |
| 2026-05-06 16:16 | 50.52898 | 4.69236 | 2994 ft | 167 kts | 250° |
| 2026-05-06 16:16 | 50.52423 | 4.67582 | 3017 ft | 167 kts | 250° |
| 2026-05-06 16:17 | 50.51935 | 4.65882 | 3013 ft | 172 kts | 250° |
| 2026-05-06 16:17 | 50.51438 | 4.64155 | 2947 ft | 174 kts | 250° |
| 2026-05-06 16:17 | 50.50941 | 4.62433 | 2755 ft | 172 kts | 250° |
| 2026-05-06 16:17 | 50.50449 | 4.60723 | 2536 ft | 172 kts | 250° |
| 2026-05-06 16:18 | 50.49955 | 4.59009 | 2306 ft | 172 kts | 250° |
| 2026-05-06 16:18 | 50.49464 | 4.57311 | 2079 ft | 170 kts | 250° |
| 2026-05-06 16:18 | 50.48978 | 4.55626 | 1866 ft | 165 kts | 250° |
| 2026-05-06 16:18 | 50.48516 | 4.54034 | 1625 ft | 156 kts | 250° |
| 2026-05-06 16:19 | 50.48075 | 4.52507 | 1404 ft | 152 kts | 251° |
| 2026-05-06 16:19 | 50.47649 | 4.51029 | 1180 ft | 149 kts | 249° |
| 2026-05-06 16:19 | 50.47226 | 4.49561 | 934 ft | 147 kts | 248° |
| 2026-05-06 16:19 | 50.46815 | 4.48150 | 743 ft | 136 kts | 246° |
| 2026-05-06 16:20 | 50.46434 | 4.46826 | 625 ft | 122 kts | 246° |
| 2026-05-06 16:20 | 50.46146 | 4.45830 | 632 ft | 76 kts | 246° |
| 2026-05-06 16:20 | 50.45975 | 4.45229 | 632 ft | 51 kts | 245° |
| 2026-05-06 16:20 | 50.45889 | 4.44875 | 628 ft | 20 kts | 286° |
| 2026-05-06 16:21 | 50.45964 | 4.44775 | 629 ft | 15 kts | 348° |
| 2026-05-06 16:21 | 50.46056 | 4.44902 | 633 ft | 22 kts | 73° |
| 2026-05-06 16:21 | 50.46118 | 4.45137 | 635 ft | 24 kts | 65° |
| 2026-05-06 16:21 | 50.46193 | 4.45388 | 636 ft | 27 kts | 64° |
| 2026-05-06 16:22 | 50.46278 | 4.45661 | 629 ft | 29 kts | 64° |
| 2026-05-06 16:22 | 50.46357 | 4.45934 | 626 ft | 28 kts | 68° |
| 2026-05-06 16:22 | 50.46409 | 4.46123 | 627 ft | 29 kts | 66° |
| 2026-05-06 16:22 | 50.46492 | 4.46410 | 624 ft | 24 kts | 65° |
| 2026-05-06 16:23 | 50.46578 | 4.46551 | 620 ft | 9 kts | 345° |
| 2026-05-06 16:23 | 50.46649 | 4.46560 | 627 ft | 14 kts | 342° |
| 2026-05-06 16:23 | 50.46699 | 4.46524 | 618 ft | 0 kts | 336° |